createdAt,value
2022-09-17T00:04:22.834Z,98233.19
2022-09-17T00:09:44.621Z,98243.06
2022-09-17T00:15:07.123Z,98252.53
2022-09-17T00:20:28.845Z,98248.75
2022-09-17T00:25:50.553Z,98235.53
2022-09-17T00:31:12.707Z,98246.47
2022-09-17T00:36:36.650Z,98253.09
2022-09-17T00:41:58.381Z,98248.47
2022-09-17T00:47:20.043Z,98237.84
2022-09-17T00:52:46.087Z,98235.13
2022-09-17T00:58:11.012Z,98240.16
2022-09-17T01:03:33.389Z,98246.91
2022-09-17T01:09:07.076Z,98248.34
2022-09-17T01:14:47.600Z,98256.22
2022-09-17T01:20:48.357Z,98259.50
2022-09-17T01:26:57.881Z,98258.06
2022-09-17T01:32:31.592Z,98259.16
2022-09-17T01:38:23.563Z,98274.88
2022-09-17T01:43:56.668Z,98269.22
2022-09-17T01:49:21.702Z,98274.00
2022-09-17T01:54:49.233Z,98269.47
2022-09-17T02:00:15.945Z,98280.31
2022-09-17T02:05:43.773Z,98273.50
2022-09-17T02:11:11.617Z,98282.31
2022-09-17T02:16:36.293Z,98285.78
2022-09-17T02:22:25.810Z,98276.75
2022-09-17T02:28:11.522Z,98280.53
2022-09-17T02:33:35.680Z,98279.16
2022-09-17T02:39:02.125Z,98270.28
2022-09-17T02:44:34.054Z,98270.69
2022-09-17T02:50:29.947Z,98268.34
2022-09-17T02:56:11.115Z,98253.34
2022-09-17T03:01:39.475Z,98257.75
2022-09-17T03:07:08.954Z,98259.47
2022-09-17T03:12:31.101Z,98257.69
2022-09-17T03:17:53.597Z,98256.09
2022-09-17T03:23:15.453Z,98261.38
2022-09-17T03:28:37.192Z,98264.34
2022-09-17T03:33:58.902Z,98266.53
2022-09-17T03:39:20.666Z,98274.78
2022-09-17T03:44:45.299Z,98278.69
2022-09-17T03:50:07.761Z,98283.47
2022-09-17T03:55:29.452Z,98288.50
2022-09-17T04:00:53.302Z,98279.50
2022-09-17T04:06:15.079Z,98284.75
2022-09-17T04:11:36.811Z,98297.84
2022-09-17T04:16:59.092Z,98283.59
2022-09-17T04:22:21.042Z,98291.63
2022-09-17T04:27:44.290Z,98284.72
2022-09-17T04:33:05.981Z,98302.44
2022-09-17T04:38:27.732Z,98302.75
2022-09-17T04:43:49.512Z,98313.22
2022-09-17T04:49:11.490Z,98326.13
2022-09-17T04:54:33.306Z,98328.41
2022-09-17T04:59:55.099Z,98325.41
2022-09-17T05:05:18.419Z,98333.34
2022-09-17T05:10:40.232Z,98334.63
2022-09-17T05:16:02.231Z,98338.72
2022-09-17T05:21:24.225Z,98328.41
2022-09-17T05:26:45.942Z,98335.22
2022-09-17T05:32:07.710Z,98336.19
2022-09-17T05:37:29.732Z,98328.53
2022-09-17T05:42:51.414Z,98346.44
2022-09-17T05:48:14.644Z,98340.47
2022-09-17T05:53:36.346Z,98342.03
2022-09-17T05:58:58.444Z,98347.72
2022-09-17T06:04:20.267Z,98358.31
2022-09-17T06:09:41.991Z,98364.81
2022-09-17T06:15:04.933Z,98369.63
2022-09-17T06:20:26.641Z,98365.25
2022-09-17T06:26:01.255Z,98368.38
2022-09-17T06:31:23.095Z,98380.31
2022-09-17T06:36:45.136Z,98380.03
2022-09-17T06:42:07.002Z,98391.88
2022-09-17T06:47:28.733Z,98392.88
2022-09-17T06:52:52.638Z,98406.47
2022-09-17T06:58:14.615Z,98404.81
2022-09-17T07:03:38.501Z,98401.19
2022-09-17T07:09:00.424Z,98397.75
2022-09-17T07:14:24.644Z,98418.22
2022-09-17T07:19:46.370Z,98421.50
2022-09-17T07:25:08.756Z,98423.88
2022-09-17T07:30:30.464Z,98429.13
2022-09-17T07:36:01.094Z,98429.97
2022-09-17T07:41:23.318Z,98428.75
2022-09-17T07:46:45.198Z,98433.31
2022-09-17T07:52:06.990Z,98435.78
2022-09-17T07:57:28.679Z,98448.28
2022-09-17T08:02:54.673Z,98444.00
2022-09-17T08:08:20.962Z,98445.63
2022-09-17T08:13:43.514Z,98463.78
2022-09-17T08:19:05.427Z,98466.13
2022-09-17T08:24:27.601Z,98459.00
2022-09-17T08:29:49.593Z,98457.56
2022-09-17T08:35:11.859Z,98453.38
2022-09-17T08:40:42.996Z,98462.75
2022-09-17T08:46:04.848Z,98451.72
2022-09-17T08:52:02.369Z,98459.41
2022-09-17T08:57:44.878Z,98474.00
2022-09-17T09:03:30.075Z,98479.53
2022-09-17T09:09:00.382Z,98470.34
2022-09-17T09:14:30.419Z,98474.78
2022-09-17T09:19:54.371Z,98468.47
2022-09-17T09:25:16.891Z,98464.59
2022-09-17T09:31:04.587Z,98460.00
2022-09-17T09:36:28.630Z,98463.88
2022-09-17T09:42:08.691Z,98464.47
2022-09-17T09:47:42.970Z,98465.88
2022-09-17T09:53:23.935Z,98467.53
2022-09-17T09:58:45.686Z,98470.56
2022-09-17T10:04:17.543Z,98474.88
2022-09-17T10:09:45.958Z,98473.72
2022-09-17T10:15:29.041Z,98467.00
2022-09-17T10:21:01.064Z,98459.88
2022-09-17T10:26:35.216Z,98457.53
2022-09-17T10:31:58.845Z,98454.25
2022-09-17T10:37:46.482Z,98451.13
2022-09-17T10:43:18.898Z,98434.69
2022-09-17T10:48:51.048Z,98443.63
2022-09-17T10:54:12.820Z,98447.53
2022-09-17T11:00:08.864Z,98445.47
2022-09-17T11:06:13.599Z,98427.53
2022-09-17T11:11:59.213Z,98433.47
2022-09-17T11:17:54.709Z,98418.19
2022-09-17T11:23:31.334Z,98413.44
2022-09-17T11:29:07.882Z,98414.53
2022-09-17T11:34:36.165Z,98409.81
2022-09-17T11:40:07.294Z,98418.06
2022-09-17T11:45:39.150Z,98406.44
2022-09-17T11:51:36.415Z,98394.16
2022-09-17T11:57:17.942Z,98396.78
2022-09-17T12:02:51.676Z,98379.47
2022-09-17T12:08:27.699Z,98378.28
2022-09-17T12:13:53.088Z,98369.56
2022-09-17T12:19:35.825Z,98384.00
2022-09-17T12:24:57.756Z,98390.72
2022-09-17T12:30:23.136Z,98410.44
2022-09-17T12:36:03.604Z,98399.84
2022-09-17T12:41:43.995Z,98385.44
2022-09-17T12:47:13.531Z,98398.72
2022-09-17T12:52:42.843Z,98404.13
2022-09-17T12:58:32.467Z,98409.53
2022-09-17T13:04:02.026Z,98403.00
2022-09-17T13:09:57.064Z,98429.91
2022-09-17T13:16:00.972Z,98439.59
2022-09-17T13:21:32.046Z,98442.38
2022-09-17T13:26:54.953Z,98440.78
2022-09-17T13:32:34.854Z,98429.88
2022-09-17T13:37:59.365Z,98431.88
2022-09-17T13:43:26.570Z,98433.25
2022-09-17T13:48:52.463Z,98420.06
2022-09-17T13:54:16.722Z,98428.97
2022-09-17T13:59:51.232Z,98421.28
2022-09-17T14:05:32.424Z,98419.13
2022-09-17T14:10:55.380Z,98403.59
2022-09-17T14:16:33.724Z,98406.03
2022-09-17T14:22:05.988Z,98409.91
2022-09-17T14:27:45.932Z,98405.63
2022-09-17T14:33:17.502Z,98405.38
2022-09-17T14:38:45.304Z,98390.81
2022-09-17T14:44:14.889Z,98395.81
2022-09-17T14:49:38.537Z,98394.66
2022-09-17T14:55:31.779Z,98390.59
2022-09-17T15:00:53.619Z,98383.31
2022-09-17T15:06:22.522Z,98392.75
2022-09-17T15:11:48.031Z,98390.81
2022-09-17T15:17:14.893Z,98389.63
2022-09-17T15:22:41.947Z,98387.00
2022-09-17T15:28:20.642Z,98388.66
2022-09-17T15:33:43.984Z,98383.66
2022-09-17T15:39:41.068Z,98387.22
2022-09-17T15:45:20.313Z,98394.19
2022-09-17T15:51:26.197Z,98397.97
2022-09-17T15:56:56.595Z,98376.69
2022-09-17T16:02:30.851Z,98373.84
2022-09-17T16:07:52.668Z,98382.19
2022-09-17T16:13:14.466Z,98376.59
2022-09-17T16:18:36.152Z,98392.00
2022-09-17T16:23:58.285Z,98387.22
2022-09-17T16:29:21.186Z,98394.41
2022-09-17T16:34:42.941Z,98399.19
2022-09-17T16:40:05.215Z,98409.84
2022-09-17T16:45:29.084Z,98401.31
2022-09-17T16:50:50.989Z,98395.34
2022-09-17T16:56:14.653Z,98399.63
2022-09-17T17:01:37.171Z,98395.31
2022-09-17T17:06:58.935Z,98404.28
2022-09-17T17:12:20.711Z,98438.59
2022-09-17T17:17:42.431Z,98451.16
2022-09-17T17:23:04.183Z,98449.19
2022-09-17T17:28:26.231Z,98426.53
2022-09-17T17:33:47.954Z,98421.06
2022-09-17T17:39:09.732Z,98425.75
2022-09-17T17:44:31.567Z,98444.94
2022-09-17T17:49:53.250Z,98454.63
2022-09-17T17:55:16.597Z,98463.44
2022-09-17T18:00:38.309Z,98470.56
2022-09-17T18:06:00.607Z,98468.19
2022-09-17T18:11:23.149Z,98462.38
2022-09-17T18:16:44.888Z,98466.78
2022-09-17T18:22:06.675Z,98473.19
2022-09-17T18:27:28.432Z,98489.47
2022-09-17T18:32:50.229Z,98486.94
2022-09-17T18:38:12.008Z,98489.75
2022-09-17T18:43:34.503Z,98500.78
2022-09-17T18:48:58.139Z,98501.63
2022-09-17T18:54:19.910Z,98503.41
2022-09-17T18:59:41.721Z,98505.13
2022-09-17T19:05:04.038Z,98550.22
2022-09-17T19:10:26.506Z,98543.28
2022-09-17T19:15:48.497Z,98604.69
2022-09-17T19:21:12.590Z,98574.34
2022-09-17T19:26:34.370Z,98580.03
2022-09-17T19:31:56.295Z,98585.84
2022-09-17T19:37:18.184Z,98585.41
2022-09-17T19:42:39.955Z,98582.47
2022-09-17T19:48:02.054Z,98594.03
2022-09-17T19:53:24.415Z,98609.31
2022-09-17T19:58:46.773Z,98614.06
2022-09-17T20:04:09.570Z,98626.88
2022-09-17T20:09:33.045Z,98623.84
2022-09-17T20:14:54.856Z,98613.88
2022-09-17T20:20:17.148Z,98616.03
2022-09-17T20:25:39.081Z,98613.88
2022-09-17T20:31:02.764Z,98617.47
2022-09-17T20:36:28.217Z,98615.91
2022-09-17T20:41:50.057Z,98613.78
2022-09-17T20:47:11.759Z,98611.72
2022-09-17T20:52:33.452Z,98618.75
2022-09-17T20:57:55.166Z,98614.72
2022-09-17T21:03:17.330Z,98632.88
2022-09-17T21:08:39.108Z,98651.00
2022-09-17T21:14:01.438Z,98642.03
2022-09-17T21:19:25.277Z,98648.63
2022-09-17T21:24:47.073Z,98649.81
2022-09-17T21:30:09.782Z,98651.63
2022-09-17T21:35:33.375Z,98654.31
2022-09-17T21:41:00.150Z,98661.31
2022-09-17T21:46:24.538Z,98650.09
2022-09-17T21:51:46.458Z,98660.16
2022-09-17T21:57:08.227Z,98660.84
2022-09-17T22:02:30.357Z,98653.59
2022-09-17T22:07:52.190Z,98655.69
2022-09-17T22:13:13.901Z,98661.00
2022-09-17T22:18:37.498Z,98671.66
2022-09-17T22:24:02.129Z,98662.97
2022-09-17T22:29:25.023Z,98657.56
2022-09-17T22:34:46.718Z,98653.81
2022-09-17T22:40:09.337Z,98660.66
2022-09-17T22:45:31.158Z,98653.75
2022-09-17T22:50:53.145Z,98646.44
2022-09-17T22:56:16.446Z,98636.72
2022-09-17T23:01:39.338Z,98639.88
2022-09-17T23:07:01.116Z,98642.50
2022-09-17T23:12:22.799Z,98644.19
2022-09-17T23:17:44.576Z,98643.34
2022-09-17T23:23:06.276Z,98652.78
2022-09-17T23:28:27.942Z,98648.69
2022-09-17T23:33:50.433Z,98646.34
2022-09-17T23:39:12.273Z,98644.66
2022-09-17T23:44:33.999Z,98638.09
2022-09-17T23:49:55.922Z,98648.84
2022-09-17T23:55:17.781Z,98646.50
